createdAt,value
2023-04-07T00:02:03.160Z,10.80
2023-04-07T00:04:36.820Z,10.80
2023-04-07T00:07:03.706Z,10.80
2023-04-07T00:09:30.706Z,10.80
2023-04-07T00:11:57.486Z,10.70
2023-04-07T00:14:24.215Z,10.70
2023-04-07T00:16:51.048Z,10.70
2023-04-07T00:19:17.772Z,10.70
2023-04-07T00:21:44.453Z,10.70
2023-04-07T00:24:12.935Z,10.70
2023-04-07T00:26:41.264Z,10.60
2023-04-07T00:29:08.063Z,10.60
2023-04-07T00:31:34.796Z,10.60
2023-04-07T00:34:01.770Z,10.50
2023-04-07T00:36:28.950Z,10.50
2023-04-07T00:38:55.938Z,10.50
2023-04-07T00:41:22.729Z,10.50
2023-04-07T00:43:53.441Z,10.50
2023-04-07T00:46:23.832Z,10.50
2023-04-07T00:48:50.787Z,10.50
2023-04-07T00:51:20.116Z,10.50
2023-04-07T00:53:46.915Z,10.50
2023-04-07T00:56:13.927Z,10.40
2023-04-07T00:58:40.800Z,10.40
2023-04-07T01:01:19.222Z,10.40
2023-04-07T01:03:53.626Z,10.40
2023-04-07T01:06:26.148Z,10.40
2023-04-07T01:09:06.563Z,10.30
2023-04-07T01:11:58.408Z,10.30
2023-04-07T01:14:28.118Z,10.30
2023-04-07T01:16:57.763Z,10.30
2023-04-07T01:19:48.967Z,10.30
2023-04-07T01:22:24.875Z,10.30
2023-04-07T01:25:16.128Z,10.30
2023-04-07T01:28:24.448Z,10.30
2023-04-07T01:30:54.524Z,10.30
2023-04-07T01:33:22.085Z,10.30
2023-04-07T01:35:50.383Z,10.30
2023-04-07T01:38:17.949Z,10.30
2023-04-07T01:40:45.921Z,10.30
2023-04-07T01:43:13.731Z,10.30
2023-04-07T01:45:41.721Z,10.30
2023-04-07T01:48:09.284Z,10.30
2023-04-07T01:50:37.286Z,10.40
2023-04-07T01:53:04.895Z,10.30
2023-04-07T01:55:32.646Z,10.30
2023-04-07T01:58:03.742Z,10.40
2023-04-07T02:00:30.532Z,10.40
2023-04-07T02:03:10.670Z,10.40
2023-04-07T02:05:39.792Z,10.40
2023-04-07T02:08:08.830Z,10.40
2023-04-07T02:10:37.543Z,10.30
2023-04-07T02:13:07.129Z,10.30
2023-04-07T02:15:36.056Z,10.30
2023-04-07T02:18:04.637Z,10.30
2023-04-07T02:20:32.288Z,10.30
2023-04-07T02:22:59.230Z,10.30
2023-04-07T02:25:28.322Z,10.30
2023-04-07T02:27:57.164Z,10.30
2023-04-07T02:30:24.902Z,10.30
2023-04-07T02:32:52.183Z,10.30
2023-04-07T02:35:19.370Z,10.30
2023-04-07T02:37:47.349Z,10.30
2023-04-07T02:40:14.733Z,10.30
2023-04-07T02:42:41.708Z,10.30
2023-04-07T02:45:10.106Z,10.30
2023-04-07T02:47:37.774Z,10.30
2023-04-07T02:50:05.364Z,10.30
2023-04-07T02:52:32.187Z,10.30
2023-04-07T02:54:59.004Z,10.30
2023-04-07T02:57:25.936Z,10.20
2023-04-07T02:59:52.763Z,10.20
2023-04-07T03:02:19.567Z,10.20
2023-04-07T03:04:46.334Z,10.20
2023-04-07T03:07:13.021Z,10.10
2023-04-07T03:09:39.699Z,10.10
2023-04-07T03:12:06.624Z,10.10
2023-04-07T03:14:33.357Z,10.10
2023-04-07T03:17:00.539Z,10.10
2023-04-07T03:19:27.397Z,10.00
2023-04-07T03:21:54.131Z,10.10
2023-04-07T03:24:21.095Z,10.10
2023-04-07T03:26:47.830Z,10.10
2023-04-07T03:29:14.708Z,10.10
2023-04-07T03:31:41.701Z,10.10
2023-04-07T03:34:08.560Z,10.10
2023-04-07T03:36:35.344Z,10.10
2023-04-07T03:39:02.046Z,10.10
2023-04-07T03:41:28.802Z,10.10
2023-04-07T03:43:55.621Z,10.10
2023-04-07T03:46:22.522Z,10.10
2023-04-07T03:48:49.348Z,10.10
2023-04-07T03:51:16.269Z,10.10
2023-04-07T03:53:43.080Z,10.10
2023-04-07T03:56:09.918Z,10.10
2023-04-07T03:58:36.744Z,10.00
2023-04-07T04:01:03.685Z,10.00
2023-04-07T04:03:30.587Z,10.00
2023-04-07T04:05:57.494Z,10.00
2023-04-07T04:08:24.212Z,10.00
2023-04-07T04:10:51.277Z,10.00
2023-04-07T04:13:18.046Z,10.00
2023-04-07T04:15:44.797Z,10.00
2023-04-07T04:18:11.484Z,10.00
2023-04-07T04:20:38.295Z,10.00
2023-04-07T04:23:05.018Z,10.00
2023-04-07T04:25:31.848Z,10.00
2023-04-07T04:27:58.718Z,10.00
2023-04-07T04:30:25.457Z,10.00
2023-04-07T04:32:52.279Z,10.00
2023-04-07T04:35:19.022Z,10.00
2023-04-07T04:37:45.730Z,9.90
2023-04-07T04:40:12.961Z,9.90
2023-04-07T04:42:39.652Z,9.90
2023-04-07T04:45:07.319Z,9.90
2023-04-07T04:47:34.118Z,9.90
2023-04-07T04:50:00.950Z,9.90
2023-04-07T04:52:28.767Z,9.90
2023-04-07T04:54:55.636Z,9.90
2023-04-07T04:57:22.311Z,9.90
2023-04-07T04:59:49.086Z,9.90
2023-04-07T05:02:16.363Z,9.90
2023-04-07T05:04:43.423Z,9.90
2023-04-07T05:07:10.474Z,9.90
2023-04-07T05:09:37.194Z,9.90
2023-04-07T05:12:04.036Z,9.90
2023-04-07T05:14:30.752Z,9.90
2023-04-07T05:16:57.581Z,9.90
2023-04-07T05:19:24.336Z,9.90
2023-04-07T05:21:51.079Z,9.90
2023-04-07T05:24:17.851Z,9.90
2023-04-07T05:26:44.508Z,9.90
2023-04-07T05:29:11.342Z,9.90
2023-04-07T05:31:38.114Z,9.90
2023-04-07T05:34:04.884Z,9.90
2023-04-07T05:36:31.852Z,9.90
2023-04-07T05:38:58.669Z,10.00
2023-04-07T05:41:25.432Z,10.00
2023-04-07T05:43:52.450Z,10.00
2023-04-07T05:46:19.371Z,10.00
2023-04-07T05:48:46.313Z,10.00
2023-04-07T05:51:13.114Z,10.00
2023-04-07T05:53:39.863Z,10.00
2023-04-07T05:56:07.250Z,10.00
2023-04-07T05:58:34.013Z,9.90
2023-04-07T06:01:00.775Z,9.90
2023-04-07T06:03:27.667Z,9.90
2023-04-07T06:05:54.486Z,9.90
2023-04-07T06:08:21.552Z,9.90
2023-04-07T06:10:48.287Z,9.90
2023-04-07T06:13:15.096Z,10.00
2023-04-07T06:15:41.914Z,10.00
2023-04-07T06:18:08.675Z,10.00
2023-04-07T06:20:35.888Z,10.00
2023-04-07T06:23:02.697Z,10.00
2023-04-07T06:25:29.395Z,10.00
2023-04-07T06:27:56.464Z,10.00
2023-04-07T06:30:23.205Z,10.00
2023-04-07T06:32:49.975Z,10.00
2023-04-07T06:35:16.707Z,10.10
2023-04-07T06:37:43.379Z,10.10
2023-04-07T06:40:10.337Z,10.10
2023-04-07T06:42:37.041Z,10.10
2023-04-07T06:45:03.829Z,10.10
2023-04-07T06:47:30.673Z,10.10
2023-04-07T06:49:57.474Z,10.10
2023-04-07T06:52:24.192Z,10.20
2023-04-07T06:54:50.955Z,10.20
2023-04-07T06:57:17.695Z,10.20
2023-04-07T06:59:44.647Z,10.20
2023-04-07T07:02:11.453Z,10.20
2023-04-07T07:04:38.847Z,10.20
2023-04-07T07:07:05.880Z,10.30
2023-04-07T07:09:32.623Z,10.30
2023-04-07T07:11:59.372Z,10.30
2023-04-07T07:14:26.068Z,10.30
2023-04-07T07:16:52.804Z,10.30
2023-04-07T07:19:19.518Z,10.30
2023-04-07T07:21:46.258Z,10.40
2023-04-07T07:24:13.153Z,10.40
2023-04-07T07:26:43.483Z,10.40
2023-04-07T07:29:10.921Z,10.40
2023-04-07T07:31:37.613Z,10.50
2023-04-07T07:34:04.329Z,10.50
2023-04-07T07:36:32.296Z,10.50
2023-04-07T07:38:59.176Z,10.60
2023-04-07T07:41:26.467Z,10.60
2023-04-07T07:43:53.378Z,10.60
2023-04-07T07:46:20.192Z,10.60
2023-04-07T07:48:46.995Z,10.60
2023-04-07T07:51:13.685Z,10.70
2023-04-07T07:53:40.663Z,10.70
2023-04-07T07:56:07.417Z,10.80
2023-04-07T07:58:34.161Z,10.80
2023-04-07T08:01:00.951Z,10.80
2023-04-07T08:03:27.875Z,10.80
2023-04-07T08:05:54.935Z,10.80
2023-04-07T08:08:21.721Z,10.90
2023-04-07T08:10:48.968Z,10.90
2023-04-07T08:13:16.071Z,11.00
2023-04-07T08:15:43.128Z,11.10
2023-04-07T08:18:10.038Z,11.20
2023-04-07T08:20:36.836Z,11.30
2023-04-07T08:23:03.972Z,11.30
2023-04-07T08:25:30.813Z,11.30
2023-04-07T08:27:57.593Z,11.30
2023-04-07T08:30:24.535Z,11.40
2023-04-07T08:32:51.376Z,11.40
2023-04-07T08:35:18.242Z,11.50
2023-04-07T08:37:45.242Z,11.60
2023-04-07T08:40:12.775Z,11.60
2023-04-07T08:42:46.011Z,11.70
2023-04-07T08:45:13.790Z,11.80
2023-04-07T08:47:41.989Z,11.90
2023-04-07T08:50:11.084Z,11.90
2023-04-07T08:52:53.389Z,11.90
2023-04-07T08:55:20.342Z,12.00
2023-04-07T08:57:47.888Z,12.00
2023-04-07T09:00:15.555Z,12.10
2023-04-07T09:02:45.441Z,12.10
2023-04-07T09:05:14.822Z,12.20
2023-04-07T09:07:43.246Z,12.20
2023-04-07T09:10:10.445Z,12.30
2023-04-07T09:12:37.637Z,12.30
2023-04-07T09:15:06.922Z,12.40
2023-04-07T09:17:33.757Z,12.40
2023-04-07T09:20:01.364Z,12.50
2023-04-07T09:22:45.797Z,12.50
2023-04-07T09:25:30.253Z,12.60
2023-04-07T09:27:59.573Z,12.60
2023-04-07T09:30:27.224Z,12.60
2023-04-07T09:32:54.410Z,12.70
2023-04-07T09:35:23.285Z,12.70
2023-04-07T09:38:07.897Z,12.80
2023-04-07T09:40:35.501Z,12.80
2023-04-07T09:43:03.933Z,12.90
2023-04-07T09:45:39.420Z,12.90
2023-04-07T09:48:07.761Z,12.90
2023-04-07T09:50:49.284Z,12.90
2023-04-07T09:53:17.025Z,13.00
2023-04-07T09:55:43.998Z,13.00
2023-04-07T09:58:14.142Z,13.00
2023-04-07T10:00:42.473Z,13.00
2023-04-07T10:03:09.670Z,13.00
2023-04-07T10:05:37.045Z,13.00
2023-04-07T10:08:06.223Z,13.00
2023-04-07T10:10:33.576Z,13.10
2023-04-07T10:13:00.682Z,13.00
2023-04-07T10:15:27.708Z,13.00
2023-04-07T10:17:56.895Z,12.90
2023-04-07T10:20:24.492Z,13.00
2023-04-07T10:22:53.826Z,13.00
2023-04-07T10:25:24.406Z,13.00
2023-04-07T10:27:59.459Z,13.10
2023-04-07T10:30:31.669Z,13.10
2023-04-07T10:32:59.074Z,13.20
2023-04-07T10:35:26.100Z,13.30
2023-04-07T10:38:13.736Z,13.30
2023-04-07T10:40:41.898Z,13.40
2023-04-07T10:43:12.423Z,13.40
2023-04-07T10:45:59.890Z,13.50
2023-04-07T10:48:28.730Z,13.70
2023-04-07T10:51:08.361Z,13.90
2023-04-07T10:53:35.417Z,14.10
2023-04-07T10:56:02.791Z,14.30
2023-04-07T10:58:30.764Z,14.40
2023-04-07T11:00:58.037Z,14.40
2023-04-07T11:03:25.943Z,14.40
2023-04-07T11:05:53.040Z,14.40
2023-04-07T11:08:46.207Z,14.40
2023-04-07T11:11:21.663Z,14.30
2023-04-07T11:13:50.266Z,14.30
2023-04-07T11:16:19.224Z,14.30
2023-04-07T11:18:50.142Z,14.30
2023-04-07T11:21:20.019Z,14.20
2023-04-07T11:23:48.447Z,14.20
2023-04-07T11:26:16.569Z,14.10
2023-04-07T11:28:52.545Z,14.10
2023-04-07T11:31:23.630Z,14.10
2023-04-07T11:33:59.396Z,14.10
2023-04-07T11:36:36.016Z,14.10
2023-04-07T11:39:03.239Z,14.00
2023-04-07T11:41:32.745Z,14.00
2023-04-07T11:44:09.901Z,13.90
2023-04-07T11:46:52.029Z,13.90
2023-04-07T11:49:18.787Z,13.90
2023-04-07T11:51:46.071Z,13.90
2023-04-07T11:54:13.055Z,13.90
2023-04-07T11:56:47.403Z,13.90
2023-04-07T11:59:20.980Z,13.90
2023-04-07T12:01:48.460Z,13.90
2023-04-07T12:04:18.716Z,13.90
2023-04-07T12:06:47.493Z,13.90
2023-04-07T12:09:27.881Z,13.90
2023-04-07T12:11:54.816Z,13.80
2023-04-07T12:14:21.807Z,13.80
2023-04-07T12:16:48.744Z,13.70
2023-04-07T12:19:15.587Z,13.70
2023-04-07T12:21:42.369Z,13.70
2023-04-07T12:24:09.104Z,13.70
2023-04-07T12:26:35.875Z,13.60
2023-04-07T12:29:05.402Z,13.60
2023-04-07T12:31:33.000Z,13.50
2023-04-07T12:34:00.089Z,13.50
2023-04-07T12:36:27.625Z,13.50
2023-04-07T12:38:55.051Z,13.40
2023-04-07T12:41:22.091Z,13.40
2023-04-07T12:43:49.178Z,13.40
2023-04-07T12:46:16.754Z,13.40
2023-04-07T12:48:44.319Z,13.40
2023-04-07T12:51:11.141Z,13.40
2023-04-07T12:53:37.893Z,13.40
2023-04-07T12:56:05.034Z,13.30
2023-04-07T12:58:31.846Z,13.30
2023-04-07T13:00:58.794Z,13.30
2023-04-07T13:03:25.701Z,13.20
2023-04-07T13:05:55.024Z,13.20
2023-04-07T13:08:22.096Z,13.20
2023-04-07T13:10:48.913Z,13.20
2023-04-07T13:13:15.737Z,13.30
2023-04-07T13:15:42.491Z,13.30
2023-04-07T13:18:09.328Z,13.30
2023-04-07T13:20:36.130Z,13.30
2023-04-07T13:23:08.193Z,13.30
2023-04-07T13:25:37.615Z,13.30
2023-04-07T13:28:04.676Z,13.20
2023-04-07T13:30:31.731Z,13.20
2023-04-07T13:32:58.629Z,13.20
2023-04-07T13:35:25.912Z,13.10
2023-04-07T13:37:53.061Z,13.10
2023-04-07T13:40:19.896Z,13.10
2023-04-07T13:42:46.607Z,13.10
2023-04-07T13:45:13.401Z,13.20
2023-04-07T13:47:40.132Z,13.20
2023-04-07T13:50:07.439Z,13.30
2023-04-07T13:52:35.531Z,13.30
2023-04-07T13:55:04.064Z,13.30
2023-04-07T13:57:31.306Z,13.30
2023-04-07T13:59:58.213Z,13.30
2023-04-07T14:02:27.954Z,13.40
2023-04-07T14:04:54.937Z,13.30
2023-04-07T14:07:23.099Z,13.30
2023-04-07T14:09:49.946Z,13.40
2023-04-07T14:12:16.788Z,13.40
2023-04-07T14:14:43.627Z,13.40
2023-04-07T14:17:10.747Z,13.30
2023-04-07T14:19:37.572Z,13.40
2023-04-07T14:22:04.326Z,13.40
2023-04-07T14:24:31.252Z,13.50
2023-04-07T14:26:58.265Z,13.50
2023-04-07T14:29:25.117Z,13.60
2023-04-07T14:31:51.870Z,13.60
2023-04-07T14:34:18.672Z,13.60
2023-04-07T14:37:06.220Z,13.70
2023-04-07T14:39:32.998Z,13.80
2023-04-07T14:42:00.741Z,13.80
2023-04-07T14:44:29.079Z,13.80
2023-04-07T14:46:56.199Z,13.80
2023-04-07T14:49:23.392Z,13.90
2023-04-07T14:51:50.588Z,13.80
2023-04-07T14:54:17.344Z,13.80
2023-04-07T14:56:45.124Z,13.80
2023-04-07T14:59:12.014Z,13.90
2023-04-07T15:01:39.900Z,13.90
2023-04-07T15:04:06.731Z,13.90
2023-04-07T15:06:33.801Z,13.90
2023-04-07T15:09:00.852Z,13.90
2023-04-07T15:11:27.765Z,13.90
2023-04-07T15:13:54.855Z,13.90
2023-04-07T15:16:21.651Z,13.80
2023-04-07T15:18:48.776Z,13.80
2023-04-07T15:21:15.937Z,13.80
2023-04-07T15:23:42.992Z,13.80
2023-04-07T15:26:10.161Z,13.80
2023-04-07T15:28:37.484Z,13.70
2023-04-07T15:31:08.654Z,13.70
2023-04-07T15:33:39.727Z,13.70
2023-04-07T15:36:08.007Z,13.70
2023-04-07T15:38:35.545Z,13.70
2023-04-07T15:41:02.403Z,13.80
2023-04-07T15:43:29.672Z,13.80
2023-04-07T15:45:56.563Z,13.80
2023-04-07T15:48:23.587Z,13.80
2023-04-07T15:50:50.432Z,13.80
2023-04-07T15:53:17.183Z,13.90
2023-04-07T15:55:44.293Z,13.90
2023-04-07T15:58:11.081Z,13.90
2023-04-07T16:00:39.112Z,13.90
2023-04-07T16:03:06.330Z,14.00
2023-04-07T16:05:33.472Z,14.00
2023-04-07T16:08:00.431Z,14.00
2023-04-07T16:10:27.175Z,14.00
2023-04-07T16:12:53.976Z,14.00
2023-04-07T16:15:36.459Z,14.10
2023-04-07T16:18:07.745Z,14.10
2023-04-07T16:20:34.624Z,14.10
2023-04-07T16:23:01.817Z,14.00
2023-04-07T16:25:28.931Z,14.00
2023-04-07T16:27:55.697Z,14.00
2023-04-07T16:30:22.464Z,14.00
2023-04-07T16:32:49.316Z,13.90
2023-04-07T16:35:16.470Z,13.90
2023-04-07T16:37:45.824Z,13.90
2023-04-07T16:40:13.398Z,13.90
2023-04-07T16:42:40.882Z,13.80
2023-04-07T16:45:08.619Z,13.80
2023-04-07T16:47:35.760Z,13.70
2023-04-07T16:50:04.254Z,13.70
2023-04-07T16:52:31.763Z,13.70
2023-04-07T16:54:59.344Z,13.60
2023-04-07T16:57:26.186Z,13.70
2023-04-07T16:59:53.030Z,13.60
2023-04-07T17:02:20.386Z,13.60
2023-04-07T17:04:47.403Z,13.60
2023-04-07T17:07:14.172Z,13.60
2023-04-07T17:09:41.233Z,13.60
2023-04-07T17:12:07.982Z,13.60
2023-04-07T17:14:35.051Z,13.60
2023-04-07T17:17:02.335Z,13.50
2023-04-07T17:19:29.277Z,13.50
2023-04-07T17:21:56.478Z,13.50
2023-04-07T17:24:23.786Z,13.50
2023-04-07T17:26:50.937Z,13.50
2023-04-07T17:29:17.936Z,13.50
2023-04-07T17:31:44.702Z,13.50
2023-04-07T17:34:11.989Z,13.50
2023-04-07T17:36:38.810Z,13.50
2023-04-07T17:39:05.680Z,13.50
2023-04-07T17:41:38.420Z,13.50
2023-04-07T17:44:05.817Z,13.40
2023-04-07T17:46:32.989Z,13.40
2023-04-07T17:48:59.901Z,13.30
2023-04-07T17:51:27.690Z,13.30
2023-04-07T17:53:54.668Z,13.30
2023-04-07T17:56:21.685Z,13.30
2023-04-07T17:58:48.708Z,13.20
2023-04-07T18:01:17.016Z,13.20
2023-04-07T18:03:44.406Z,13.10
2023-04-07T18:06:16.055Z,13.10
2023-04-07T18:08:44.934Z,13.10
2023-04-07T18:11:11.703Z,13.10
2023-04-07T18:13:38.426Z,13.10
2023-04-07T18:16:09.308Z,13.00
2023-04-07T18:18:38.038Z,13.00
2023-04-07T18:21:08.652Z,13.00
2023-04-07T18:23:35.482Z,13.00
2023-04-07T18:26:04.791Z,12.90
2023-04-07T18:28:31.977Z,12.90
2023-04-07T18:31:07.727Z,12.90
2023-04-07T18:33:36.326Z,12.80
2023-04-07T18:36:06.637Z,12.80
2023-04-07T18:38:38.059Z,12.70
2023-04-07T18:41:06.818Z,12.70
2023-04-07T18:43:33.604Z,12.70
2023-04-07T18:46:00.418Z,12.70
2023-04-07T18:48:27.243Z,12.70
2023-04-07T18:50:55.096Z,12.70
2023-04-07T18:53:22.898Z,12.70
2023-04-07T18:55:50.355Z,12.70
2023-04-07T18:58:17.187Z,12.70
2023-04-07T19:00:44.567Z,12.70
2023-04-07T19:03:11.904Z,12.70
2023-04-07T19:05:39.848Z,12.70
2023-04-07T19:08:06.958Z,12.70
2023-04-07T19:10:34.907Z,12.60
2023-04-07T19:13:01.884Z,12.60
2023-04-07T19:15:32.817Z,12.60
2023-04-07T19:18:02.018Z,12.60
2023-04-07T19:20:33.862Z,12.60
2023-04-07T19:23:02.114Z,12.60
2023-04-07T19:25:29.818Z,12.50
2023-04-07T19:27:57.204Z,12.40
2023-04-07T19:30:24.350Z,12.40
2023-04-07T19:32:51.181Z,12.40
2023-04-07T19:35:18.254Z,12.40
2023-04-07T19:37:47.410Z,12.30
2023-04-07T19:40:15.053Z,12.30
2023-04-07T19:42:41.928Z,12.30
2023-04-07T19:45:09.531Z,12.30
2023-04-07T19:47:37.201Z,12.30
2023-04-07T19:50:05.476Z,12.30
2023-04-07T19:52:33.020Z,12.30
2023-04-07T19:55:01.067Z,12.30
2023-04-07T19:57:29.047Z,12.30
2023-04-07T19:59:56.150Z,12.30
2023-04-07T20:02:23.431Z,12.30
2023-04-07T20:04:50.307Z,12.30
2023-04-07T20:07:17.194Z,12.30
2023-04-07T20:09:44.786Z,12.30
2023-04-07T20:12:11.750Z,12.30
2023-04-07T20:14:38.625Z,12.30
2023-04-07T20:17:05.609Z,12.30
2023-04-07T20:19:32.656Z,12.30
2023-04-07T20:21:59.492Z,12.30
2023-04-07T20:24:26.388Z,12.30
2023-04-07T20:26:53.098Z,12.30
2023-04-07T20:29:21.739Z,12.30
2023-04-07T20:31:49.239Z,12.30
2023-04-07T20:34:16.637Z,12.30
2023-04-07T20:36:43.570Z,12.30
2023-04-07T20:39:10.399Z,12.30
2023-04-07T20:41:37.578Z,12.30
2023-04-07T20:44:04.451Z,12.30
2023-04-07T20:46:32.650Z,12.30
2023-04-07T20:48:59.678Z,12.30
2023-04-07T20:51:26.437Z,12.30
2023-04-07T20:53:53.159Z,12.30
2023-04-07T20:56:19.945Z,12.30
2023-04-07T20:58:48.233Z,12.30
2023-04-07T21:01:15.738Z,12.20
2023-04-07T21:03:42.950Z,12.20
2023-04-07T21:06:09.898Z,12.20
2023-04-07T21:08:36.618Z,12.20
2023-04-07T21:11:03.414Z,12.20
2023-04-07T21:13:30.368Z,12.20
2023-04-07T21:15:59.186Z,12.10
2023-04-07T21:18:27.246Z,12.20
2023-04-07T21:20:56.787Z,12.20
2023-04-07T21:23:23.610Z,12.20
2023-04-07T21:25:50.391Z,12.20
2023-04-07T21:28:17.137Z,12.20
2023-04-07T21:30:43.974Z,12.10
2023-04-07T21:33:11.251Z,12.20
2023-04-07T21:35:38.026Z,12.10
2023-04-07T21:38:04.868Z,12.10
2023-04-07T21:40:31.663Z,12.10
2023-04-07T21:42:58.466Z,12.10
2023-04-07T21:45:25.248Z,12.10
2023-04-07T21:47:52.106Z,12.10
2023-04-07T21:50:18.974Z,12.10
2023-04-07T21:52:45.879Z,12.10
2023-04-07T21:55:12.813Z,12.10
2023-04-07T21:57:39.620Z,12.10
2023-04-07T22:00:07.343Z,12.00
2023-04-07T22:02:34.281Z,12.10
2023-04-07T22:05:01.335Z,12.00
2023-04-07T22:07:28.024Z,12.00
2023-04-07T22:09:54.765Z,12.00
2023-04-07T22:12:21.559Z,12.00
2023-04-07T22:14:48.427Z,12.00
2023-04-07T22:17:16.250Z,12.00
2023-04-07T22:19:43.414Z,12.00
2023-04-07T22:22:10.489Z,11.90
2023-04-07T22:24:37.279Z,11.90
2023-04-07T22:27:03.996Z,11.90
2023-04-07T22:29:30.856Z,11.90
2023-04-07T22:31:57.793Z,11.90
2023-04-07T22:34:24.615Z,11.90
2023-04-07T22:36:51.370Z,11.90
2023-04-07T22:39:18.136Z,11.90
2023-04-07T22:41:44.856Z,11.90
2023-04-07T22:44:11.552Z,11.90
2023-04-07T22:46:38.411Z,12.00
2023-04-07T22:49:05.393Z,11.90
2023-04-07T22:51:32.263Z,11.90
2023-04-07T22:53:58.943Z,11.90
2023-04-07T22:56:27.226Z,11.90
2023-04-07T22:58:54.039Z,11.80
2023-04-07T23:01:21.086Z,11.80
2023-04-07T23:03:47.951Z,11.80
2023-04-07T23:06:14.809Z,11.80
2023-04-07T23:08:41.668Z,11.80
2023-04-07T23:11:10.077Z,11.80
2023-04-07T23:13:38.052Z,11.80
2023-04-07T23:16:06.354Z,11.80
2023-04-07T23:18:33.218Z,11.80
2023-04-07T23:21:00.130Z,11.70
2023-04-07T23:23:27.187Z,11.70
2023-04-07T23:25:53.971Z,11.70
2023-04-07T23:28:21.137Z,11.70
2023-04-07T23:30:48.002Z,11.70
2023-04-07T23:33:14.981Z,11.70
2023-04-07T23:35:41.858Z,11.70
2023-04-07T23:38:09.295Z,11.70
2023-04-07T23:40:36.489Z,11.70
2023-04-07T23:43:03.333Z,11.70
2023-04-07T23:45:30.503Z,11.70
2023-04-07T23:47:57.383Z,11.70
2023-04-07T23:50:25.108Z,11.70
2023-04-07T23:52:51.971Z,11.60
2023-04-07T23:55:18.760Z,11.60
2023-04-07T23:57:45.767Z,11.60
